Latest Weather Observations for Applethorpe

IDQ60801

Issued at 6:22 pm EST Monday 23 May 2022 (issued every 10 minutes, with the page automatically refreshed every 10 minutes)

About weather observations | Map of weather stations | Latest weather observations for QLD | Other Formats
Station Details ID: 041175 Name: APPLETHORPE Lat: -28.62 Lon: 151.95 Height: 871.6 m
Data from the previous 72 hours. | See also: Recent months at Applethorpe
Date/Time
EST
Temp
°C
App
Temp
°C
Dew
Point
°C
Rel
Hum
%
Delta-T
°C
Wind Press
QNH
hPa
Press
MSL
hPa
Rain since
9am
mm
Dir  Spd
km/h
Gust
km/h
Spd
kts
Gust
kts
23/06:00pm 11.2 9.1 9.8 91 0.7 ESE 11 22 6 12 1024.3 1023.0 0.4
23/05:30pm 11.6 10.4 10.3 92 0.7 ESE 7 13 4 7 1024.3 1023.0 0.2
23/05:00pm 11.9 10.2 9.8 87 1.1 ESE 9 17 5 9 1024.1 1022.8 0.2
23/04:30pm 12.1 10.8 9.8 86 1.2 ESE 7 15 4 8 1024.1 1022.8 0.2
23/04:00pm 12.1 10.8 9.8 86 1.2 ESE 7 17 4 9 1023.9 1022.6 0.2
23/03:30pm 12.6 10.4 9.4 81 1.7 ESE 11 24 6 13 1023.8 1022.5 0.2
23/03:00pm 13.2 11.2 10.2 82 1.6 ESE 11 22 6 12 1023.7 1022.4 0.2
23/02:30pm 12.5 10.4 9.9 84 1.4 ESE 11 24 6 13 1023.5 1022.2 0.2
23/02:00pm 13.0 11.4 10.2 83 1.5 ESE 9 20 5 11 1023.6 1022.3 0.2
23/01:30pm 12.4 10.0 10.1 86 1.2 ESE 13 22 7 12 1023.9 1022.6 0.2
23/01:00pm 11.8 9.9 10.4 91 0.8 ESE 11 22 6 12 1024.1 1022.8 0.2
23/12:30pm 11.7 9.3 10.1 90 0.9 ESE 13 22 7 12 1024.6 1023.3 0.2
23/12:00pm 12.5 10.6 10.4 87 1.1 ESE 11 24 6 13 1024.4 1023.2 0.0
23/11:30am 13.3 10.6 10.5 83 1.5 ESE 15 30 8 16 1024.6 1023.3 0.0
23/11:00am 13.2 10.5 10.2 82 1.6 ESE 15 33 8 18 1024.9 1023.6 0.0
23/10:30am 12.2 9.4 9.9 86 1.2 ESE 15 28 8 15 1025.1 1023.8 0.0
23/10:00am 12.4 9.6 10.1 86 1.2 ESE 15 32 8 17 1025.4 1024.1 0.0
23/09:30am 11.9 8.7 9.8 87 1.1 ESE 17 26 9 14 1025.5 1024.3 0.0
23/09:00am 11.7 8.4 9.4 86 1.2 ESE 17 35 9 19 1025.3 1024.0 0.6
23/08:30am 11.4 9.0 10.0 91 0.7 ESE 13 30 7 16 1025.1 1023.8 0.6
23/08:00am 11.3 8.8 9.6 89 0.9 ESE 13 24 7 13 1024.8 1023.5 0.6
23/07:30am 11.0 8.4 9.3 89 0.9 ESE 13 28 7 15 1024.4 1023.2 0.6
23/07:00am 10.5 7.5 9.1 91 0.7 ESE 15 26 8 14 1024.1 1022.8 0.6
23/06:30am 10.5 7.9 9.4 93 0.6 ESE 13 22 7 12 1024.0 1022.7 0.6
23/06:00am 10.7 7.7 9.3 91 0.7 ESE 15 26 8 14 1023.6 1022.3 0.6
23/05:30am 11.0 8.5 9.6 91 0.7 ESE 13 24 7 13 1023.0 1021.7 0.6
23/05:00am 11.1 8.5 9.4 89 0.9 ESE 13 22 7 12 1022.8 1021.5 0.6
23/04:30am 11.1 8.5 9.4 89 0.9 ESE 13 26 7 14 1022.6 1021.3 0.6
23/04:00am 11.1 8.5 9.5 90 0.8 ESE 13 33 7 18 1022.6 1021.3 0.6
23/03:30am 11.0 8.0 9.3 89 0.9 ESE 15 33 8 18 1022.5 1021.2 0.6
23/03:00am 11.0 8.0 9.3 89 0.9 ESE 15 30 8 16 1022.5 1021.2 0.6
23/02:30am 11.0 8.4 9.4 90 0.8 ESE 13 26 7 14 1022.7 1021.4 0.6
23/02:00am 10.8 7.8 9.2 90 0.8 ESE 15 28 8 15 1022.7 1021.4 0.6
23/01:30am 10.7 8.0 9.1 90 0.8 ESE 13 22 7 12 1022.8 1021.5 0.6
23/01:00am 10.6 7.9 8.9 89 0.9 ESE 13 30 7 16 1022.8 1021.5 0.6
23/12:30am 10.3 7.5 8.7 90 0.8 ESE 13 26 7 14 1022.9 1021.6 0.6
23/12:00am 10.2 7.4 8.5 89 0.9 ESE 13 32 7 17 1023.1 1021.8 0.6
 
Date/Time
EST
Temp
°C
App
Temp
°C
Dew
Point
°C
Rel
Hum
%
Delta-T
°C
Wind Press
QNH
hPa
Press
MSL
hPa
Rain since
9am
mm
Dir  Spd
km/h
Gust
km/h
Spd
kts
Gust
kts
22/11:30pm 9.8 7.2 7.9 88 1.0 ESE 11 24 6 13 1023.4 1022.0 0.6
22/11:00pm 9.7 7.0 7.3 85 1.2 ESE 11 26 6 14 1023.8 1022.5 0.6
22/10:30pm 10.0 6.3 8.1 88 1.0 ESE 17 32 9 17 1024.0 1022.7 0.6
22/10:00pm 10.4 6.5 8.8 90 0.8 ESE 19 37 10 20 1024.1 1022.8 0.6
22/09:30pm 10.8 8.2 9.4 91 0.7 ESE 13 28 7 15 1024.0 1022.7 0.6
22/09:00pm 10.9 7.9 9.3 90 0.8 ESE 15 30 8 16 1024.1 1022.8 0.6
22/08:30pm 10.8 7.6 8.6 86 1.1 ESE 15 26 8 14 1024.1 1022.8 0.6
22/08:00pm 11.1 8.1 9.2 88 1.0 ESE 15 33 8 18 1023.8 1022.5 0.6
22/07:30pm 11.3 8.0 9.4 88 1.0 ESE 17 33 9 18 1023.6 1022.3 0.6
22/07:00pm 11.4 8.8 9.5 88 1.0 ESE 13 26 7 14 1023.2 1021.9 0.4
22/06:30pm 11.2 7.7 8.9 86 1.2 ESE 17 35 9 19 1023.1 1021.8 0.4
22/06:00pm 11.1 8.0 9.0 87 1.1 ESE 15 28 8 15 1022.8 1021.5 0.4
22/05:30pm 11.2 8.2 9.1 87 1.1 ESE 15 30 8 16 1022.4 1021.0 0.4
22/05:00pm 10.9 8.5 8.5 85 1.2 ESE 11 20 6 11 1022.3 1020.9 0.4
22/04:30pm 11.1 8.3 8.7 85 1.2 ESE 13 28 7 15 1022.3 1020.9 0.4
22/04:00pm 11.2 8.8 8.6 84 1.3 ESE 11 24 6 13 1022.2 1020.8 0.4
22/03:30pm 11.5 8.6 9.6 88 1.0 ESE 15 33 8 18 1022.0 1020.7 0.4
22/03:00pm 12.1 9.7 10.2 88 1.0 ESE 13 24 7 13 1021.9 1020.6 0.2
22/02:30pm 13.4 11.3 9.8 79 1.9 ESE 11 26 6 14 1021.7 1020.4 0.0
22/02:00pm 13.3 10.3 9.2 76 2.2 SE 15 28 8 15 1021.6 1020.3 0.0
22/01:30pm 12.3 10.1 9.5 83 1.5 SE 11 20 6 11 1021.8 1020.5 0.0
22/01:00pm 12.1 10.2 10.5 90 0.9 ESE 11 22 6 12 1022.0 1020.7 0.0
22/12:30pm 12.3 9.6 10.2 87 1.1 ESE 15 32 8 17 1022.5 1021.2 0.0
22/12:00pm 13.0 11.2 10.9 87 1.1 ESE 11 26 6 14 1022.7 1021.4 0.0
22/11:30am 13.3 11.2 11.0 86 1.3 ESE 13 33 7 18 1022.8 1021.5 0.0
22/11:00am 12.7 10.4 10.6 87 1.1 ESE 13 24 7 13 1023.4 1022.0 0.0
22/10:30am 12.4 9.0 10.6 89 1.0 ESE 19 39 10 21 1023.7 1022.4 0.0
22/10:00am 12.0 9.3 10.4 90 0.9 ESE 15 32 8 17 1023.8 1022.5 0.0
22/09:30am 11.8 8.6 10.0 89 1.0 ESE 17 32 9 17 1023.9 1022.6 0.0
22/09:00am 12.0 9.6 10.2 89 1.0 ESE 13 24 7 13 1023.8 1022.5 4.2
22/08:30am 11.9 10.0 10.5 91 0.8 ESE 11 20 6 11 1023.8 1022.5 4.2
22/08:00am 11.7 8.8 9.8 88 1.0 ESE 15 30 8 16 1023.7 1022.4 4.2
22/07:30am 11.6 9.2 10.0 90 0.9 ESE 13 28 7 15 1023.4 1022.0 4.2
22/07:00am 11.3 8.5 9.9 91 0.7 ESE 15 28 8 15 1023.0 1021.7 4.2
22/06:30am 11.2 8.8 10.1 93 0.6 ESE 13 28 7 15 1022.9 1021.6 4.2
22/06:00am 11.3 9.4 10.4 94 0.5 E 11 30 6 16 1022.6 1021.3 4.2
22/05:30am 11.4 9.5 10.5 94 0.5 E 11 26 6 14 1022.6 1021.3 4.2
22/05:00am 11.4 9.5 10.5 94 0.5 ESE 11 19 6 10 1022.2 1020.8 4.2
22/04:30am 11.3 9.0 10.5 95 0.4 ESE 13 24 7 13 1022.4 1021.0 4.0
22/04:00am 11.1 8.8 10.3 95 0.4 ESE 13 24 7 13 1022.6 1021.3 4.0
22/03:30am 11.1 9.1 10.3 95 0.4 ESE 11 24 6 13 1022.7 1021.4 4.0
22/03:00am 10.9 8.9 10.1 95 0.4 ESE 11 19 6 10 1022.8 1021.5 4.0
22/02:30am 10.9 8.9 10.0 94 0.5 ESE 11 22 6 12 1023.4 1022.0 4.0
22/02:00am 11.0 8.6 10.1 94 0.5 ESE 13 26 7 14 1023.5 1022.2 4.0
22/01:30am 10.9 8.0 9.8 93 0.6 ESE 15 28 8 15 1023.8 1022.5 4.0
22/01:00am 10.8 8.3 9.6 92 0.6 ESE 13 26 7 14 1024.3 1023.0 4.0
22/12:30am 11.0 9.3 9.9 93 0.6 ESE 9 20 5 11 1024.4 1023.2 4.0
22/12:00am 11.1 9.0 9.9 92 0.6 ESE 11 24 6 13 1024.6 1023.3 4.0
 
Date/Time
EST
Temp
°C
App
Temp
°C
Dew
Point
°C
Rel
Hum
%
Delta-T
°C
Wind Press
QNH
hPa
Press
MSL
hPa
Rain since
9am
mm
Dir  Spd
km/h
Gust
km/h
Spd
kts
Gust
kts
21/11:30pm 11.4 9.0 10.0 91 0.7 ESE 13 28 7 15 1025.0 1023.7 4.0
21/11:00pm 11.3 8.9 10.0 92 0.7 ESE 13 22 7 12 1024.9 1023.6 3.8
21/10:30pm 11.3 9.3 10.2 93 0.6 ESE 11 22 6 12 1025.3 1024.0 3.8
21/10:00pm 11.0 8.9 9.9 93 0.6 ESE 11 24 6 13 1025.3 1024.0 3.8
21/09:30pm 10.9 8.9 10.0 94 0.5 ESE 11 22 6 12 1025.6 1024.4 3.8
21/09:00pm 10.8 8.7 9.9 94 0.5 ESE 11 26 6 14 1025.5 1024.3 3.6
21/08:30pm 10.8 8.4 9.9 94 0.5 ESE 13 32 7 17 1025.6 1024.4 3.6
21/08:00pm 10.9 8.5 10.0 94 0.5 ESE 13 26 7 14 1025.9 1024.6 3.4
21/07:30pm 11.0 9.0 10.1 94 0.5 ESE 11 28 6 15 1026.1 1024.8 3.2
21/07:00pm 10.9 8.9 10.0 94 0.5 ESE 11 20 6 11 1025.6 1024.4 3.0
21/06:30pm 10.9 9.2 9.8 93 0.6 ESE 9 19 5 10 1025.5 1024.3 3.0
21/06:00pm 11.1 9.1 10.2 94 0.5 ESE 11 28 6 15 1024.9 1023.6 2.8
21/05:30pm 11.1 8.7 9.9 92 0.6 ESE 13 24 7 13 1024.9 1023.6 2.8
21/05:00pm 11.1 9.4 10.0 93 0.6 ESE 9 15 5 8 1025.3 1024.0 2.6
21/04:30pm 11.3 8.5 10.0 92 0.7 ESE 15 35 8 19 1025.0 1023.7 1.8
21/04:00pm 11.6 9.3 10.3 92 0.7 ESE 13 24 7 13 1025.1 1023.8 1.6
21/03:30pm 11.5 9.1 10.1 91 0.7 ESE 13 26 7 14 1024.9 1023.6 1.4
21/03:00pm 11.5 9.1 10.1 91 0.7 ESE 13 28 7 15 1024.7 1023.4 1.4
21/02:30pm 11.5 9.6 10.4 93 0.6 ESE 11 20 6 11 1024.4 1023.2 1.2
21/02:00pm 11.4 9.4 10.1 92 0.7 ESE 11 22 6 12 1024.9 1023.6 1.0
21/01:30pm 11.4 9.4 10.1 92 0.7 ESE 11 24 6 13 1025.1 1023.8 0.6
21/01:00pm 11.4 8.5 9.7 89 0.9 ESE 15 30 8 16 1025.9 1024.6 0.6
21/12:30pm 11.4 9.0 10.1 92 0.7 ESE 13 33 7 18 1025.6 1024.4 0.4
21/12:00pm 11.7 9.4 10.3 91 0.7 SE 13 30 7 16 1026.0 1024.7 0.4
21/11:30am 11.7 9.7 10.1 90 0.9 ESE 11 30 6 16 1026.7 1025.5 0.2
21/11:00am 11.4 8.6 10.0 91 0.7 ESE 15 24 8 13 1026.8 1025.6 0.2
21/10:30am 10.9 8.4 9.7 92 0.6 SE 13 30 7 16 1026.7 1025.5 0.2
21/10:00am 11.2 9.2 10.1 93 0.6 ESE 11 24 6 13 1027.1 1025.8 0.0
21/09:30am 11.1 9.1 10.0 93 0.6 ESE 11 22 6 12 1027.5 1026.3 0.0
21/09:00am 11.1 8.3 10.0 93 0.6 ESE 15 26 8 14 1027.8 1026.6 4.0
21/08:30am 11.1 9.1 10.0 93 0.6 ESE 11 24 6 13 1027.8 1026.6 3.8
21/08:00am 11.2 9.6 10.3 94 0.5 ESE 9 22 5 12 1027.9 1026.7 3.4
21/07:30am 11.2 9.2 10.3 94 0.5 ESE 11 24 6 13 1027.4 1026.1 3.2
21/07:00am 11.2 10.2 10.4 95 0.4 ESE 6 17 3 9 1027.3 1026.0 3.2
21/06:30am 11.2 9.6 10.3 94 0.5 ESE 9 20 5 11 1026.8 1025.6 3.0
21/06:00am 11.1 9.9 10.3 95 0.4 ESE 7 17 4 9 1026.5 1025.3 2.8
21/05:30am 11.1 9.9 10.3 95 0.4 ESE 7 15 4 8 1026.4 1025.1 2.6
21/05:00am 11.1 9.9 10.3 95 0.4 ESE 7 17 4 9 1026.2 1024.9 2.4
21/04:30am 11.2 10.0 10.4 95 0.4 ESE 7 17 4 9 1026.2 1024.9 2.4
21/04:00am 11.1 9.5 10.3 95 0.4 ESE 9 19 5 10 1026.5 1025.3 2.2
21/03:30am 11.2 10.0 10.3 94 0.5 ESE 7 15 4 8 1026.6 1025.4 2.2
21/03:00am 11.2 10.0 10.3 94 0.5 ESE 7 13 4 7 1026.7 1025.5 2.0
21/02:30am 11.2 9.2 10.3 94 0.5 ESE 11 20 6 11 1026.9 1025.7 2.0
21/02:00am 11.2 8.9 10.3 94 0.5 ESE 13 24 7 13 1026.6 1025.4 2.0
21/01:30am 11.2 9.6 10.1 93 0.6 ESE 9 24 5 13 1026.7 1025.5 2.0
21/01:00am 11.1 8.7 10.0 93 0.6 E 13 22 7 12 1027.1 1025.8 2.0
21/12:30am 11.0 8.9 9.9 93 0.6 ESE 11 26 6 14 1027.1 1025.8 2.0
21/12:00am 11.2 9.1 9.8 91 0.7 E 11 28 6 15 1027.2 1025.9 2.0
 
Date/Time
EST
Temp
°C
App
Temp
°C
Dew
Point
°C
Rel
Hum
%
Delta-T
°C
Wind Press
QNH
hPa
Press
MSL
hPa
Rain since
9am
mm
Dir  Spd
km/h
Gust
km/h
Spd
kts
Gust
kts
20/11:30pm 11.1 8.7 9.9 92 0.6 ESE 13 26 7 14 1027.3 1026.0 2.0
20/11:00pm 11.2 9.1 9.6 90 0.8 E 11 20 6 11 1027.9 1026.7 2.0
20/10:30pm 11.2 9.4 9.6 90 0.8 E 9 20 5 11 1028.0 1026.8 2.0
20/10:00pm 11.1 8.9 9.4 89 0.9 ESE 11 24 6 13 1028.0 1026.8 2.0
20/09:30pm 11.0 8.8 9.4 90 0.8 ESE 11 20 6 11 1028.1 1026.9 2.0
20/09:00pm 11.0 8.5 9.6 91 0.7 ESE 13 30 7 16 1028.1 1026.9 2.0
20/08:30pm 11.1 8.2 9.7 91 0.7 ESE 15 33 8 18 1027.8 1026.6 2.0
20/08:00pm 11.0 8.9 9.6 91 0.7 ESE 11 26 6 14 1028.1 1026.9 2.0
20/07:30pm 10.9 9.1 9.5 91 0.7 ESE 9 19 5 10 1028.2 1027.0 2.0
20/07:00pm 10.7 8.9 9.3 91 0.7 ESE 9 15 5 8 1027.7 1026.5 1.8
20/06:30pm 10.6 8.7 9.2 91 0.7 ESE 9 19 5 10 1028.5 1027.3 1.8

Other formats

Comma delimited format used in spreadsheet applications
http://www.bom.gov.au/fwo/IDQ60801/IDQ60801.94553.axf

JavaScript Object Notation format (JSON) in row-major order
http://www.bom.gov.au/fwo/IDQ60801/IDQ60801.94553.json

Data quality

Most of these data are generated automatically and are frequently updated. Quality checks on data are not normally performed. It is possible for incorrect values to appear. Refer to information at About Latest Weather Observations and please check the disclaimer before using these data.